createdAt,value
2019-05-03T00:00:56.624Z,25.10
2019-05-03T00:02:03.953Z,25.10
2019-05-03T00:03:06.676Z,25.10
2019-05-03T00:04:09.461Z,25.10
2019-05-03T00:05:12.572Z,25.10
2019-05-03T00:06:15.380Z,25.10
2019-05-03T00:07:18.453Z,25.10
2019-05-03T00:08:21.711Z,25.10
2019-05-03T00:09:24.496Z,25.10
2019-05-03T00:10:27.247Z,25.10
2019-05-03T00:11:29.968Z,25.10
2019-05-03T00:12:32.807Z,25.10
2019-05-03T00:13:35.608Z,25.10
2019-05-03T00:14:38.339Z,25.10
2019-05-03T00:15:42.846Z,25.10
2019-05-03T00:16:45.549Z,25.10
2019-05-03T00:17:48.263Z,25.10
2019-05-03T00:18:52.618Z,25.10
2019-05-03T00:19:55.518Z,25.10
2019-05-03T00:20:58.259Z,25.10
2019-05-03T00:22:02.069Z,25.10
2019-05-03T00:23:04.999Z,25.10
2019-05-03T00:24:07.723Z,25.10
2019-05-03T00:25:12.726Z,25.10
2019-05-03T00:26:14.803Z,25.10
2019-05-03T00:27:17.908Z,25.10
2019-05-03T00:28:21.675Z,25.10
2019-05-03T00:29:24.570Z,25.10
2019-05-03T00:30:27.282Z,25.10
2019-05-03T00:31:31.780Z,25.10
2019-05-03T00:32:34.375Z,25.10
2019-05-03T00:33:37.462Z,25.10
2019-05-03T00:34:41.795Z,25.10
2019-05-03T00:35:44.727Z,25.10
2019-05-03T00:36:47.443Z,25.10
2019-05-03T00:37:50.167Z,25.10
2019-05-03T00:38:52.884Z,25.10
2019-05-03T00:39:55.607Z,25.10
2019-05-03T00:40:58.349Z,25.10
2019-05-03T00:42:02.750Z,25.10
2019-05-03T00:43:05.583Z,25.10
2019-05-03T00:44:08.299Z,25.10
2019-05-03T00:45:12.579Z,25.10
2019-05-03T00:46:15.462Z,25.10
2019-05-03T00:47:18.187Z,25.10
2019-05-03T00:48:21.922Z,25.10
2019-05-03T00:49:25.388Z,25.10
2019-05-03T00:50:28.104Z,25.10
2019-05-03T00:51:31.801Z,25.10
2019-05-03T00:52:34.687Z,25.10
2019-05-03T00:53:37.407Z,25.10
2019-05-03T00:54:42.218Z,25.10
2019-05-03T00:55:44.471Z,25.10
2019-05-03T00:56:47.222Z,25.10
2019-05-03T00:57:52.008Z,25.10
2019-05-03T00:58:54.283Z,25.10
2019-05-03T00:59:57.275Z,25.10
2019-05-03T01:01:02.651Z,25.10
2019-05-03T01:02:05.531Z,25.10
2019-05-03T01:03:08.251Z,25.10
2019-05-03T01:04:11.833Z,25.10
2019-05-03T01:05:14.787Z,25.10
2019-05-03T01:06:17.534Z,25.10
2019-05-03T01:07:22.110Z,25.10
2019-05-03T01:08:24.594Z,25.10
2019-05-03T01:09:27.314Z,25.10
2019-05-03T01:10:30.026Z,25.10
2019-05-03T01:11:32.779Z,25.10
2019-05-03T01:12:35.499Z,25.10
2019-05-03T01:13:38.223Z,25.10
2019-05-03T01:14:42.143Z,25.10
2019-05-03T01:15:44.960Z,25.10
2019-05-03T01:16:47.715Z,25.10
2019-05-03T01:17:52.448Z,25.10
2019-05-03T01:18:54.771Z,25.10
2019-05-03T01:19:57.489Z,25.10
2019-05-03T01:21:02.183Z,25.10
2019-05-03T01:22:04.568Z,25.10
2019-05-03T01:23:07.289Z,25.10
2019-05-03T01:24:10.003Z,25.10
2019-05-03T01:25:12.730Z,25.10
2019-05-03T01:26:15.443Z,25.10
2019-05-03T01:27:18.195Z,25.10
2019-05-03T01:28:21.621Z,25.10
2019-05-03T01:29:24.427Z,25.10
2019-05-03T01:30:27.142Z,25.10
2019-05-03T01:31:31.810Z,25.10
2019-05-03T01:32:34.223Z,25.10
2019-05-03T01:33:36.943Z,25.10
2019-05-03T01:34:41.630Z,25.10
2019-05-03T01:35:44.452Z,25.10
2019-05-03T01:36:47.168Z,25.10
2019-05-03T01:37:51.787Z,25.10
2019-05-03T01:38:54.273Z,25.10
2019-05-03T01:39:56.993Z,25.10
2019-05-03T01:41:01.579Z,25.10
2019-05-03T01:42:04.070Z,25.10
2019-05-03T01:43:06.808Z,25.10
2019-05-03T01:44:09.510Z,25.10
2019-05-03T01:45:12.227Z,25.10
2019-05-03T01:46:15.237Z,25.10
2019-05-03T01:47:17.988Z,25.10
2019-05-03T01:48:21.711Z,25.10
2019-05-03T01:49:24.430Z,25.10
2019-05-03T01:50:27.140Z,25.10
2019-05-03T01:51:29.859Z,25.10
2019-05-03T01:52:32.606Z,25.10
2019-05-03T01:53:35.315Z,25.10
2019-05-03T01:54:38.034Z,25.10
2019-05-03T01:55:44.430Z,25.10
2019-05-03T01:56:55.947Z,25.10
2019-05-03T01:57:49.451Z,25.10
2019-05-03T01:58:52.474Z,25.10
2019-05-03T01:59:55.282Z,25.10
2019-05-03T02:00:58.014Z,25.10
2019-05-03T02:02:02.276Z,25.10
2019-05-03T02:03:05.159Z,25.10
2019-05-03T02:04:07.886Z,25.10
2019-05-03T02:05:11.981Z,25.10
2019-05-03T02:06:14.716Z,25.10
2019-05-03T02:07:17.426Z,25.10
2019-05-03T02:08:21.901Z,25.10
2019-05-03T02:09:24.514Z,25.10
2019-05-03T02:10:27.231Z,25.10
2019-05-03T02:11:29.951Z,25.10
2019-05-03T02:12:32.663Z,25.10
2019-05-03T02:13:35.407Z,25.10
2019-05-03T02:14:38.129Z,25.10
2019-05-03T02:15:42.190Z,25.10
2019-05-03T02:16:45.067Z,25.10
2019-05-03T02:17:47.782Z,25.10
2019-05-03T02:18:51.840Z,25.10
2019-05-03T02:19:54.643Z,25.10
2019-05-03T02:20:57.365Z,25.10
2019-05-03T02:22:00.079Z,25.10
2019-05-03T02:23:02.930Z,25.10
2019-05-03T02:24:05.647Z,25.10
2019-05-03T02:25:08.371Z,25.10
2019-05-03T02:26:11.798Z,25.10
2019-05-03T02:27:14.606Z,25.10
2019-05-03T02:28:17.368Z,25.10
2019-05-03T02:29:21.830Z,25.10
2019-05-03T02:30:25.076Z,25.10
2019-05-03T02:31:27.924Z,25.10
2019-05-03T02:32:33.081Z,25.10
2019-05-03T02:33:35.007Z,25.10
2019-05-03T02:34:38.097Z,25.10
2019-05-03T02:35:43.018Z,25.10
2019-05-03T02:36:45.311Z,25.10
2019-05-03T02:37:48.032Z,25.10
2019-05-03T02:38:53.311Z,25.10
2019-05-03T02:39:55.600Z,25.10
2019-05-03T02:40:58.311Z,25.10
2019-05-03T02:42:07.920Z,25.10
2019-05-03T02:43:05.601Z,25.10
2019-05-03T02:44:08.508Z,25.10
2019-05-03T02:45:11.235Z,25.10
2019-05-03T02:46:16.480Z,25.10
2019-05-03T02:47:18.287Z,25.10
2019-05-03T02:48:21.039Z,25.10
2019-05-03T02:49:25.766Z,25.10
2019-05-03T02:50:28.101Z,25.10
2019-05-03T02:51:30.835Z,25.10
2019-05-03T02:52:36.437Z,25.10
2019-05-03T02:53:37.896Z,25.10
2019-05-03T02:54:40.627Z,25.10
2019-05-03T02:55:45.394Z,25.10
2019-05-03T02:56:47.680Z,25.10
2019-05-03T02:57:50.385Z,25.10
2019-05-03T02:58:55.560Z,25.10
2019-05-03T02:59:57.604Z,25.10
2019-05-03T03:01:01.563Z,25.10
2019-05-03T03:02:06.393Z,25.10
2019-05-03T03:03:08.611Z,25.10
2019-05-03T03:04:11.363Z,25.10
2019-05-03T03:05:16.465Z,25.10
2019-05-03T03:06:18.688Z,25.10
2019-05-03T03:07:21.411Z,25.10
2019-05-03T03:08:26.527Z,25.10
2019-05-03T03:09:29.401Z,25.10
2019-05-03T03:10:32.120Z,25.10
2019-05-03T03:11:37.102Z,25.10
2019-05-03T03:12:40.068Z,25.10
2019-05-03T03:13:45.599Z,25.10
2019-05-03T03:14:47.280Z,25.10
2019-05-03T03:15:50.760Z,25.10
2019-05-03T03:16:56.021Z,25.10
2019-05-03T03:17:58.876Z,25.10
2019-05-03T03:19:03.068Z,25.10
2019-05-03T03:20:06.434Z,25.10
2019-05-03T03:21:09.986Z,25.10
2019-05-03T03:22:12.706Z,25.10
2019-05-03T03:23:17.967Z,25.10
2019-05-03T03:24:19.779Z,25.10
2019-05-03T03:25:25.566Z,25.10
2019-05-03T03:26:37.623Z,25.10
2019-05-03T03:27:32.812Z,25.10
2019-05-03T03:28:36.002Z,25.10
2019-05-03T03:29:38.872Z,25.10
2019-05-03T03:31:00.000Z,25.10
2019-05-03T03:32:10.048Z,25.10
2019-05-03T03:33:17.581Z,25.10
2019-05-03T03:34:27.445Z,25.10
2019-05-03T03:35:30.290Z,25.10
2019-05-03T03:36:57.979Z,25.10
2019-05-03T03:37:41.213Z,25.10
2019-05-03T03:38:45.902Z,25.10
2019-05-03T03:39:48.292Z,25.10
2019-05-03T03:40:51.015Z,25.10
2019-05-03T03:41:55.744Z,25.10
2019-05-03T03:42:58.798Z,25.10
2019-05-03T03:44:01.942Z,25.10
2019-05-03T03:45:06.278Z,25.10
2019-05-03T03:46:09.011Z,25.10
2019-05-03T03:47:12.210Z,25.10
2019-05-03T03:48:15.959Z,25.10
2019-05-03T03:49:19.050Z,25.10
2019-05-03T03:50:25.712Z,25.10
2019-05-03T03:51:27.284Z,25.10
2019-05-03T03:52:31.380Z,25.10
2019-05-03T03:53:35.652Z,25.10
2019-05-03T03:54:38.553Z,25.10
2019-05-03T03:55:41.278Z,25.10
2019-05-03T03:56:56.061Z,25.10
2019-05-03T03:57:48.355Z,25.10
2019-05-03T03:58:51.070Z,25.10
2019-05-03T03:59:56.239Z,25.10
2019-05-03T04:00:59.231Z,25.10
2019-05-03T04:02:01.951Z,25.10
2019-05-03T04:03:05.890Z,25.10
2019-05-03T04:04:08.795Z,25.10
2019-05-03T04:05:11.542Z,25.10
2019-05-03T04:06:15.376Z,25.10
2019-05-03T04:07:18.338Z,25.10
2019-05-03T04:08:21.455Z,25.10
2019-05-03T04:09:25.569Z,25.10
2019-05-03T04:10:28.662Z,25.10
2019-05-03T04:11:31.367Z,25.10
2019-05-03T04:12:35.175Z,25.10
2019-05-03T04:13:38.099Z,25.10
2019-05-03T04:14:40.816Z,25.10
2019-05-03T04:15:45.335Z,25.10
2019-05-03T04:16:48.891Z,25.10
2019-05-03T04:17:52.019Z,25.10
2019-05-03T04:18:55.127Z,25.10
2019-05-03T04:19:58.007Z,25.10
2019-05-03T04:21:00.760Z,25.10
2019-05-03T04:22:05.924Z,25.10
2019-05-03T04:23:07.823Z,25.10
2019-05-03T04:24:10.539Z,25.10
2019-05-03T04:25:15.462Z,25.10
2019-05-03T04:26:17.614Z,25.10
2019-05-03T04:27:24.439Z,25.10
2019-05-03T04:28:25.592Z,25.10
2019-05-03T04:29:28.555Z,25.10
2019-05-03T04:30:31.322Z,25.10
2019-05-03T04:31:36.536Z,25.10
2019-05-03T04:32:38.379Z,25.10
2019-05-03T04:33:41.091Z,25.10
2019-05-03T04:34:45.309Z,25.10
2019-05-03T04:35:48.364Z,25.10
2019-05-03T04:36:51.075Z,25.10
2019-05-03T04:37:55.878Z,25.10
2019-05-03T04:38:58.129Z,25.10
2019-05-03T04:40:00.850Z,25.10
2019-05-03T04:41:05.938Z,25.10
2019-05-03T04:42:08.206Z,25.10
2019-05-03T04:43:10.919Z,25.10
2019-05-03T04:44:15.488Z,25.10
2019-05-03T04:45:17.971Z,25.10
2019-05-03T04:46:20.729Z,25.10
2019-05-03T04:47:26.051Z,25.10
2019-05-03T04:48:27.775Z,25.10
2019-05-03T04:49:30.500Z,25.10
2019-05-03T04:50:36.636Z,25.10
2019-05-03T04:51:38.339Z,25.10
2019-05-03T04:52:41.127Z,25.10
2019-05-03T04:53:45.438Z,25.10
2019-05-03T04:54:48.382Z,25.10
2019-05-03T04:55:51.100Z,25.10
2019-05-03T04:56:56.106Z,25.10
2019-05-03T04:57:58.681Z,25.10
2019-05-03T04:59:01.392Z,25.10
2019-05-03T05:00:08.645Z,25.10
2019-05-03T05:01:09.976Z,25.10
2019-05-03T05:02:15.668Z,25.10
2019-05-03T05:03:17.063Z,25.10
2019-05-03T05:04:19.780Z,25.10
2019-05-03T05:05:22.503Z,25.10
2019-05-03T05:06:25.804Z,25.10
2019-05-03T05:07:28.662Z,25.10
2019-05-03T05:08:31.394Z,25.10
2019-05-03T05:09:34.906Z,25.10
2019-05-03T05:10:37.926Z,25.10
2019-05-03T05:11:40.680Z,25.10
2019-05-03T05:12:45.557Z,25.10
2019-05-03T05:13:47.907Z,25.10
2019-05-03T05:14:50.628Z,25.10
2019-05-03T05:15:55.104Z,25.10
2019-05-03T05:16:57.707Z,25.10
2019-05-03T05:18:00.444Z,25.10
2019-05-03T05:19:05.347Z,25.10
2019-05-03T05:20:07.788Z,25.10
2019-05-03T05:21:10.503Z,25.10
2019-05-03T05:22:15.362Z,25.10
2019-05-03T05:23:17.710Z,25.10
2019-05-03T05:24:20.435Z,25.10
2019-05-03T05:25:25.102Z,25.10
2019-05-03T05:26:27.938Z,25.10
2019-05-03T05:27:30.686Z,25.10
2019-05-03T05:28:35.360Z,25.10
2019-05-03T05:29:37.746Z,25.10
2019-05-03T05:30:40.471Z,25.10
2019-05-03T05:31:44.636Z,25.10
2019-05-03T05:32:47.539Z,25.10
2019-05-03T05:33:50.259Z,25.10
2019-05-03T05:34:54.836Z,25.10
2019-05-03T05:35:57.316Z,25.10
2019-05-03T05:37:00.059Z,25.10
2019-05-03T05:38:04.339Z,25.10
2019-05-03T05:39:07.787Z,25.00
2019-05-03T05:40:10.494Z,24.80
2019-05-03T05:41:13.218Z,24.50
2019-05-03T05:42:15.971Z,24.30
2019-05-03T05:43:18.692Z,24.00
2019-05-03T05:44:21.412Z,23.80
2019-05-03T05:45:24.643Z,23.60
2019-05-03T05:46:27.455Z,23.50
2019-05-03T05:47:30.203Z,23.40
2019-05-03T05:48:34.799Z,23.40
2019-05-03T05:49:37.275Z,23.40
2019-05-03T05:50:39.990Z,23.50
2019-05-03T05:51:44.462Z,23.50
2019-05-03T05:52:47.219Z,23.50
2019-05-03T05:53:49.938Z,23.60
2019-05-03T05:54:52.827Z,23.60
2019-05-03T05:55:55.847Z,23.60
2019-05-03T05:56:58.563Z,23.70
2019-05-03T05:58:05.263Z,23.70
2019-05-03T05:59:05.655Z,23.80
2019-05-03T06:00:08.383Z,23.80
2019-05-03T06:01:11.099Z,23.90
2019-05-03T06:02:15.039Z,23.90
2019-05-03T06:03:17.970Z,23.90
2019-05-03T06:04:20.690Z,23.90
2019-05-03T06:05:25.140Z,24.00
2019-05-03T06:06:27.751Z,24.00
2019-05-03T06:07:31.170Z,24.10
2019-05-03T06:08:35.379Z,24.10
2019-05-03T06:09:38.207Z,24.10
2019-05-03T06:10:40.933Z,24.20
2019-05-03T06:11:45.013Z,24.20
2019-05-03T06:12:47.929Z,24.20
2019-05-03T06:13:50.647Z,24.30
2019-05-03T06:14:54.457Z,24.30
2019-05-03T06:15:57.243Z,24.30
2019-05-03T06:16:59.971Z,24.30
2019-05-03T06:18:02.731Z,24.30
2019-05-03T06:19:05.447Z,24.40
2019-05-03T06:20:08.435Z,24.40
2019-05-03T06:21:11.155Z,24.50
2019-05-03T06:22:15.373Z,24.50
2019-05-03T06:23:18.904Z,24.50
2019-05-03T06:24:21.623Z,24.50
2019-05-03T06:25:26.598Z,24.60
2019-05-03T06:26:28.695Z,24.60
2019-05-03T06:27:31.411Z,24.70
2019-05-03T06:28:35.243Z,24.70
2019-05-03T06:29:38.754Z,24.70
2019-05-03T06:30:41.454Z,24.00
2019-05-03T06:31:44.627Z,23.30
2019-05-03T06:32:47.392Z,22.70
2019-05-03T06:33:52.432Z,22.20
2019-05-03T06:34:54.640Z,21.60
2019-05-03T06:35:57.418Z,21.20
2019-05-03T06:37:00.407Z,20.80
2019-05-03T06:38:04.821Z,20.40
2019-05-03T06:39:08.420Z,20.10
2019-05-03T06:40:11.463Z,19.80
2019-05-03T06:41:15.022Z,19.50
2019-05-03T06:42:19.389Z,19.30
2019-05-03T06:43:24.395Z,19.10
2019-05-03T06:44:28.735Z,18.90
2019-05-03T06:45:32.351Z,18.80
2019-05-03T06:46:35.586Z,18.70
2019-05-03T06:47:40.283Z,18.60
2019-05-03T06:48:44.426Z,18.50
2019-05-03T06:49:48.668Z,18.40
2019-05-03T06:50:51.704Z,18.30
2019-05-03T06:51:54.770Z,18.10
2019-05-03T06:52:59.850Z,17.90
2019-05-03T06:54:04.947Z,17.70
2019-05-03T06:55:10.510Z,17.70
2019-05-03T06:56:12.140Z,17.60
2019-05-03T06:57:15.135Z,17.60
2019-05-03T06:58:30.455Z,17.60
2019-05-03T06:59:24.794Z,17.50
2019-05-03T07:00:27.383Z,17.30
2019-05-03T07:01:30.379Z,17.20
2019-05-03T07:02:35.395Z,17.10
2019-05-03T07:03:37.987Z,17.20
2019-05-03T07:04:41.023Z,17.10
2019-05-03T07:05:44.452Z,17.00
2019-05-03T07:06:48.686Z,16.90
2019-05-03T07:07:51.602Z,16.60
2019-05-03T07:08:54.980Z,16.60
2019-05-03T07:09:58.111Z,16.40
2019-05-03T07:11:01.160Z,16.30
2019-05-03T07:12:04.537Z,16.20
2019-05-03T07:13:09.039Z,16.10
2019-05-03T07:14:12.111Z,16.20
2019-05-03T07:15:15.111Z,16.20
2019-05-03T07:16:18.095Z,16.10
2019-05-03T07:17:21.091Z,16.00
2019-05-03T07:18:24.745Z,16.10
2019-05-03T07:19:27.935Z,16.10
2019-05-03T07:20:30.911Z,16.00
2019-05-03T07:21:35.411Z,16.00
2019-05-03T07:22:38.503Z,15.90
2019-05-03T07:23:41.534Z,15.80
2019-05-03T07:24:45.499Z,15.80
2019-05-03T07:25:48.883Z,15.70
2019-05-03T07:26:51.878Z,15.70
2019-05-03T07:27:55.639Z,15.70
2019-05-03T07:28:58.763Z,15.60
2019-05-03T07:30:02.159Z,15.70
2019-05-03T07:31:05.225Z,15.70
2019-05-03T07:32:08.216Z,15.70
2019-05-03T07:33:11.207Z,15.60
2019-05-03T07:34:15.558Z,15.50
2019-05-03T07:35:18.725Z,15.50
2019-05-03T07:36:25.080Z,15.40
2019-05-03T07:37:26.627Z,15.40
2019-05-03T07:38:29.619Z,15.40
2019-05-03T07:39:34.698Z,15.30
2019-05-03T07:40:37.246Z,15.20
2019-05-03T07:41:40.230Z,15.10
2019-05-03T07:42:44.866Z,15.10
2019-05-03T07:43:48.014Z,15.00
2019-05-03T07:44:51.031Z,15.00
2019-05-03T07:45:55.264Z,15.00
2019-05-03T07:46:58.430Z,14.90
2019-05-03T07:48:01.429Z,14.90
2019-05-03T07:49:05.039Z,14.80
2019-05-03T07:50:08.355Z,14.70
2019-05-03T07:51:11.346Z,14.70
2019-05-03T07:52:14.824Z,14.60
2019-05-03T07:53:18.022Z,14.50
2019-05-03T07:54:21.020Z,14.40
2019-05-03T07:55:24.975Z,14.40
2019-05-03T07:56:28.035Z,14.40
2019-05-03T07:57:31.025Z,14.60
2019-05-03T07:58:35.157Z,14.60
2019-05-03T07:59:38.277Z,14.60
2019-05-03T08:00:41.307Z,14.40
2019-05-03T08:01:45.582Z,14.30
2019-05-03T08:02:48.784Z,14.30
2019-05-03T08:03:51.763Z,14.20
2019-05-03T08:04:54.929Z,14.20
2019-05-03T08:05:58.086Z,14.40
2019-05-03T08:07:01.076Z,14.30
2019-05-03T08:08:04.809Z,14.30
2019-05-03T08:09:08.034Z,14.70
2019-05-03T08:10:11.019Z,15.00
2019-05-03T08:11:14.518Z,15.40
2019-05-03T08:12:17.638Z,15.70
2019-05-03T08:13:20.790Z,15.90
2019-05-03T08:14:25.219Z,16.20
2019-05-03T08:15:28.406Z,16.40
2019-05-03T08:16:31.399Z,16.60
2019-05-03T08:17:34.717Z,16.80
2019-05-03T08:18:37.679Z,17.00
2019-05-03T08:19:40.674Z,17.10
2019-05-03T08:20:45.115Z,17.30
2019-05-03T08:21:48.411Z,17.60
2019-05-03T08:22:51.396Z,17.80
2019-05-03T08:23:55.698Z,18.00
2019-05-03T08:24:58.912Z,18.00
2019-05-03T08:26:01.677Z,18.20
2019-05-03T08:27:05.173Z,18.30
2019-05-03T08:28:08.254Z,18.40
2019-05-03T08:29:16.136Z,18.40
2019-05-03T08:30:15.324Z,18.50
2019-05-03T08:31:18.338Z,18.50
2019-05-03T08:32:21.327Z,18.50
2019-05-03T08:33:24.977Z,18.50
2019-05-03T08:34:28.127Z,18.50
2019-05-03T08:35:30.842Z,18.50
2019-05-03T08:36:34.938Z,18.60
2019-05-03T08:37:38.059Z,18.60
2019-05-03T08:38:41.046Z,18.60
2019-05-03T08:39:44.716Z,18.50
2019-05-03T08:40:47.991Z,18.60
2019-05-03T08:41:53.023Z,18.60
2019-05-03T08:42:56.411Z,18.60
2019-05-03T08:43:59.407Z,18.60
2019-05-03T08:45:04.542Z,18.50
2019-05-03T08:46:07.239Z,18.50
2019-05-03T08:47:10.228Z,18.50
2019-05-03T08:48:15.100Z,18.40
2019-05-03T08:49:17.963Z,18.50
2019-05-03T08:50:21.677Z,18.60
2019-05-03T08:51:25.098Z,18.40
2019-05-03T08:52:28.272Z,18.30
2019-05-03T08:53:31.403Z,18.20
2019-05-03T08:54:34.845Z,18.10
2019-05-03T08:55:37.979Z,18.00
2019-05-03T08:56:40.995Z,18.00
2019-05-03T08:57:44.752Z,18.20
2019-05-03T08:58:48.072Z,18.20
2019-05-03T08:59:51.069Z,18.20
2019-05-03T09:00:54.695Z,18.20
2019-05-03T09:01:57.951Z,18.20
2019-05-03T09:03:00.935Z,18.20
2019-05-03T09:04:04.982Z,18.00
2019-05-03T09:05:08.123Z,17.90
2019-05-03T09:06:11.113Z,17.80
2019-05-03T09:07:14.804Z,17.70
2019-05-03T09:08:18.026Z,17.70
2019-05-03T09:09:21.016Z,17.70
2019-05-03T09:10:24.960Z,17.70
2019-05-03T09:11:34.071Z,17.70
2019-05-03T09:12:34.283Z,17.80
2019-05-03T09:13:37.344Z,17.80
2019-05-03T09:14:45.553Z,17.80
2019-05-03T09:15:45.995Z,18.00
2019-05-03T09:16:49.883Z,18.30
2019-05-03T09:17:52.608Z,18.60
2019-05-03T09:18:55.600Z,18.90
2019-05-03T09:19:58.359Z,19.20
2019-05-03T09:21:01.121Z,19.40
2019-05-03T09:22:05.984Z,19.60
2019-05-03T09:23:08.222Z,19.90
2019-05-03T09:24:11.001Z,20.10
2019-05-03T09:25:15.458Z,20.30
2019-05-03T09:26:18.307Z,20.50
2019-05-03T09:27:21.059Z,20.70
2019-05-03T09:28:26.470Z,20.80
2019-05-03T09:29:40.223Z,21.00
2019-05-03T09:30:32.766Z,21.10
2019-05-03T09:31:35.519Z,21.30
2019-05-03T09:32:38.263Z,21.40
2019-05-03T09:33:40.979Z,21.50
2019-05-03T09:34:44.474Z,21.70
2019-05-03T09:35:47.321Z,21.80
2019-05-03T09:36:50.356Z,21.90
2019-05-03T09:37:53.115Z,22.00
2019-05-03T09:38:55.830Z,22.10
2019-05-03T09:39:58.547Z,22.20
2019-05-03T09:41:01.268Z,22.30
2019-05-03T09:42:04.676Z,22.40
2019-05-03T09:43:07.634Z,22.50
2019-05-03T09:44:10.355Z,22.50
2019-05-03T09:45:15.240Z,22.60
2019-05-03T09:46:17.415Z,22.70
2019-05-03T09:47:20.143Z,22.80
2019-05-03T09:48:25.163Z,22.80
2019-05-03T09:49:27.548Z,22.90
2019-05-03T09:50:30.254Z,23.00
2019-05-03T09:51:34.850Z,23.00
2019-05-03T09:52:37.307Z,23.10
2019-05-03T09:53:40.278Z,23.20
2019-05-03T09:54:45.172Z,23.20
2019-05-03T09:55:47.340Z,23.30
2019-05-03T09:56:56.086Z,23.30
2019-05-03T09:57:55.540Z,23.40
2019-05-03T09:58:58.487Z,23.50
2019-05-03T10:00:01.212Z,23.50
2019-05-03T10:01:06.248Z,23.50
2019-05-03T10:02:08.271Z,23.60
2019-05-03T10:03:11.043Z,23.60
2019-05-03T10:04:14.119Z,23.70
2019-05-03T10:05:16.848Z,23.80
2019-05-03T10:06:19.679Z,23.80
2019-05-03T10:07:22.395Z,23.80
2019-05-03T10:08:25.558Z,23.90
2019-05-03T10:09:28.368Z,23.90
2019-05-03T10:10:31.088Z,23.90
2019-05-03T10:11:35.139Z,23.90
2019-05-03T10:12:37.937Z,24.00
2019-05-03T10:13:42.011Z,24.00
2019-05-03T10:14:46.467Z,24.10
2019-05-03T10:15:50.158Z,24.10
2019-05-03T10:16:54.745Z,24.10
2019-05-03T10:17:57.279Z,24.20
2019-05-03T10:19:00.036Z,24.30
2019-05-03T10:20:04.799Z,24.30
2019-05-03T10:21:07.511Z,24.30
2019-05-03T10:22:10.294Z,24.30
2019-05-03T10:23:14.879Z,24.40
2019-05-03T10:24:17.391Z,24.50
2019-05-03T10:25:20.141Z,24.50
2019-05-03T10:26:24.581Z,24.50
2019-05-03T10:27:27.379Z,24.50
2019-05-03T10:28:30.099Z,24.60
2019-05-03T10:29:32.852Z,24.70
2019-05-03T10:30:35.571Z,24.70
2019-05-03T10:31:38.294Z,24.70
2019-05-03T10:32:41.999Z,24.70
2019-05-03T10:33:45.114Z,24.70
2019-05-03T10:34:48.269Z,24.80
2019-05-03T10:35:51.085Z,24.80
2019-05-03T10:36:54.878Z,24.80
2019-05-03T10:37:57.881Z,24.80
2019-05-03T10:39:00.555Z,24.90
2019-05-03T10:40:07.728Z,24.90
2019-05-03T10:41:08.170Z,24.90
2019-05-03T10:42:10.891Z,25.00
2019-05-03T10:43:13.611Z,24.90
2019-05-03T10:44:16.367Z,25.00
2019-05-03T10:45:19.661Z,25.00
2019-05-03T10:46:22.367Z,25.10
2019-05-03T10:47:25.516Z,25.10
2019-05-03T10:48:29.944Z,25.10
2019-05-03T10:50:59.600Z,25.10
2019-05-03T10:52:05.643Z,25.20
2019-05-03T10:53:15.439Z,25.20
2019-05-03T10:54:19.571Z,25.20
2019-05-03T10:55:25.000Z,25.20
2019-05-03T10:56:30.605Z,25.20
2019-05-03T10:58:56.636Z,25.30
2019-05-03T11:00:06.104Z,25.30
2019-05-03T11:01:17.458Z,25.30
2019-05-03T11:02:25.786Z,25.30
2019-05-03T11:03:34.375Z,25.30
2019-05-03T11:04:46.322Z,25.10
2019-05-03T11:06:06.585Z,24.70
2019-05-03T11:08:32.612Z,23.90
2019-05-03T11:09:49.549Z,23.70
2019-05-03T11:10:47.210Z,23.50
2019-05-03T11:11:49.967Z,23.20
2019-05-03T11:12:57.584Z,23.00
2019-05-03T11:14:01.911Z,22.80
2019-05-03T11:15:06.164Z,22.80
2019-05-03T11:16:08.905Z,22.70
2019-05-03T11:17:15.551Z,22.70
2019-05-03T11:18:22.085Z,22.70
2019-05-03T11:19:25.435Z,22.80
2019-05-03T11:20:37.958Z,22.80
2019-05-03T11:23:05.906Z,22.70
2019-05-03T11:25:37.511Z,22.50
2019-05-03T11:29:48.223Z,22.20
2019-05-03T11:30:59.103Z,22.20
2019-05-03T11:33:35.233Z,22.00
2019-05-03T11:38:55.735Z,21.90
2019-05-03T11:40:12.183Z,21.80
2019-05-03T11:41:23.272Z,21.60
2019-05-03T11:43:44.475Z,21.40
2019-05-03T11:44:55.064Z,21.40
2019-05-03T11:47:27.628Z,21.10
2019-05-03T11:48:31.822Z,21.00
2019-05-03T11:49:36.135Z,21.10
2019-05-03T11:50:45.346Z,21.10
2019-05-03T11:56:06.060Z,21.00
2019-05-03T11:57:26.096Z,21.00
2019-05-03T11:58:27.595Z,21.00
2019-05-03T12:01:11.878Z,21.00
2019-05-03T12:02:05.041Z,21.00
2019-05-03T12:06:00.723Z,21.20
2019-05-03T12:07:05.942Z,21.20
2019-05-03T12:08:09.431Z,21.30
2019-05-03T12:09:15.484Z,21.40
2019-05-03T12:10:36.716Z,21.50
2019-05-03T12:11:35.199Z,21.50
2019-05-03T12:12:37.911Z,21.60
2019-05-03T12:13:40.635Z,21.60
2019-05-03T12:16:16.341Z,21.50
2019-05-03T12:17:18.463Z,21.50
2019-05-03T12:18:25.868Z,21.50
2019-05-03T12:20:52.508Z,21.60
2019-05-03T12:23:27.424Z,21.60
2019-05-03T12:24:32.925Z,21.70
2019-05-03T12:25:46.484Z,21.70
2019-05-03T12:26:51.527Z,21.60
2019-05-03T12:28:08.997Z,21.60
2019-05-03T12:30:35.317Z,21.60
2019-05-03T12:37:05.300Z,21.70
2019-05-03T12:38:25.693Z,21.80
2019-05-03T12:39:30.577Z,21.80
2019-05-03T12:41:59.675Z,21.90
2019-05-03T12:43:06.501Z,21.90
2019-05-03T12:44:11.625Z,22.00
2019-05-03T12:45:16.671Z,22.00
2019-05-03T12:46:26.475Z,22.00
2019-05-03T12:48:51.363Z,22.00
2019-05-03T12:49:57.039Z,22.00
2019-05-03T12:52:30.675Z,22.10
2019-05-03T12:56:23.898Z,22.20
2019-05-03T12:58:45.662Z,22.30
2019-05-03T12:59:55.655Z,22.30
2019-05-03T13:01:00.100Z,22.30
2019-05-03T13:02:04.880Z,22.30
2019-05-03T13:04:34.820Z,22.40
2019-05-03T13:05:42.502Z,22.50
2019-05-03T13:06:47.850Z,22.60
2019-05-03T13:07:55.032Z,22.70
2019-05-03T13:08:57.747Z,22.70
2019-05-03T13:10:21.734Z,22.80
2019-05-03T13:14:11.070Z,22.70
2019-05-03T13:15:15.600Z,22.70
2019-05-03T13:16:25.312Z,22.70
2019-05-03T13:20:25.073Z,22.90
2019-05-03T13:21:27.928Z,23.00
2019-05-03T13:23:54.903Z,23.10
2019-05-03T13:26:21.567Z,23.10
2019-05-03T13:27:25.311Z,23.00
2019-05-03T13:28:30.287Z,23.10
2019-05-03T13:31:00.590Z,23.00
2019-05-03T13:32:05.381Z,23.30
2019-05-03T13:33:07.750Z,23.60
2019-05-03T13:34:10.466Z,23.90
2019-05-03T13:35:15.008Z,24.00
2019-05-03T13:36:17.535Z,24.10
2019-05-03T13:37:20.294Z,24.20
2019-05-03T13:38:25.067Z,24.30
2019-05-03T13:39:27.832Z,24.40
2019-05-03T13:40:30.550Z,24.40
2019-05-03T13:41:34.958Z,24.40
2019-05-03T13:42:37.839Z,24.50
2019-05-03T13:43:40.556Z,24.50
2019-05-03T13:44:44.962Z,24.50
2019-05-03T13:45:47.862Z,24.50
2019-05-03T13:46:50.584Z,24.50
2019-05-03T13:47:55.030Z,24.50
2019-05-03T13:48:57.698Z,24.60
2019-05-03T13:50:00.414Z,24.60
2019-05-03T13:51:05.114Z,24.60
2019-05-03T13:52:07.458Z,24.60
2019-05-03T13:53:10.779Z,24.70
2019-05-03T13:54:14.941Z,24.60
2019-05-03T13:55:17.811Z,24.70
2019-05-03T13:56:20.534Z,24.70
2019-05-03T13:57:24.620Z,24.70
2019-05-03T13:58:27.406Z,24.70
2019-05-03T13:59:30.131Z,24.70
2019-05-03T14:00:34.591Z,24.70
2019-05-03T14:01:37.422Z,24.70
2019-05-03T14:02:40.167Z,24.70
2019-05-03T14:03:45.073Z,24.70
2019-05-03T14:04:52.472Z,24.80
2019-05-03T14:05:51.690Z,24.70
2019-05-03T14:06:55.261Z,24.80
2019-05-03T14:07:58.079Z,24.70
2019-05-03T14:09:00.787Z,24.80
2019-05-03T14:10:08.164Z,24.80
2019-05-03T14:11:10.879Z,24.80
2019-05-03T14:12:15.307Z,24.90
2019-05-03T14:13:17.979Z,24.90
2019-05-03T14:14:20.687Z,24.90
2019-05-03T14:15:25.428Z,24.90
2019-05-03T14:16:27.731Z,24.90
2019-05-03T14:17:30.446Z,24.90
2019-05-03T14:18:35.152Z,24.90
2019-05-03T14:19:37.894Z,24.90
2019-05-03T14:20:40.791Z,24.90
2019-05-03T14:21:44.077Z,24.90
2019-05-03T14:22:46.791Z,24.90
2019-05-03T14:23:49.535Z,24.90
2019-05-03T14:24:52.626Z,24.90
2019-05-03T14:25:55.388Z,24.90
2019-05-03T14:26:58.103Z,25.00
2019-05-03T14:28:00.877Z,25.00
2019-05-03T14:29:05.570Z,25.00
2019-05-03T14:30:08.063Z,25.00
2019-05-03T14:31:10.891Z,25.10
2019-05-03T14:32:25.459Z,25.00
2019-05-03T14:33:17.955Z,25.10
2019-05-03T14:34:21.050Z,25.10
2019-05-03T14:35:25.061Z,25.10
2019-05-03T14:36:27.900Z,25.10
2019-05-03T14:37:30.900Z,25.10
2019-05-03T14:38:33.744Z,25.10
2019-05-03T14:39:36.855Z,25.10